sensor_id;sensor_type;location;lat;lon;timestamp;P1;durP1;ratioP1;P2;durP2;ratioP2
13712;SDS011;6928;50.546;7.120;2023-10-19T00:00:45;1.45;;;0.95;;
13712;SDS011;6928;50.546;7.120;2023-10-19T00:03:14;2.05;;;1.65;;
13712;SDS011;6928;50.546;7.120;2023-10-19T00:05:41;1.10;;;1.10;;
13712;SDS011;6928;50.546;7.120;2023-10-19T00:08:09;11.85;;;2.50;;
13712;SDS011;6928;50.546;7.120;2023-10-19T00:10:40;1.65;;;1.55;;
13712;SDS011;6928;50.546;7.120;2023-10-19T00:13:09;2.33;;;2.13;;
13712;SDS011;6928;50.546;7.120;2023-10-19T00:15:37;2.28;;;1.52;;
13712;SDS011;6928;50.546;7.120;2023-10-19T00:18:06;1.45;;;1.42;;
13712;SDS011;6928;50.546;7.120;2023-10-19T00:20:46;1.73;;;1.63;;
13712;SDS011;6928;50.546;7.120;2023-10-19T00:23:18;1.83;;;1.23;;
13712;SDS011;6928;50.546;7.120;2023-10-19T00:25:57;2.20;;;2.00;;
13712;SDS011;6928;50.546;7.120;2023-10-19T00:28:24;1.63;;;1.42;;
13712;SDS011;6928;50.546;7.120;2023-10-19T00:30:53;1.88;;;1.60;;
13712;SDS011;6928;50.546;7.120;2023-10-19T00:33:27;1.20;;;1.20;;
13712;SDS011;6928;50.546;7.120;2023-10-19T00:35:58;1.80;;;1.70;;
13712;SDS011;6928;50.546;7.120;2023-10-19T00:38:34;4.10;;;1.92;;
13712;SDS011;6928;50.546;7.120;2023-10-19T00:41:15;2.63;;;2.08;;
13712;SDS011;6928;50.546;7.120;2023-10-19T00:43:47;1.92;;;1.13;;
13712;SDS011;6928;50.546;7.120;2023-10-19T00:46:22;1.88;;;1.73;;
13712;SDS011;6928;50.546;7.120;2023-10-19T00:48:57;1.98;;;1.85;;
13712;SDS011;6928;50.546;7.120;2023-10-19T00:51:28;1.27;;;1.13;;
13712;SDS011;6928;50.546;7.120;2023-10-19T00:54:09;1.80;;;1.60;;
13712;SDS011;6928;50.546;7.120;2023-10-19T00:56:41;1.02;;;1.02;;
13712;SDS011;6928;50.546;7.120;2023-10-19T00:59:13;1.67;;;1.58;;
13712;SDS011;6928;50.546;7.120;2023-10-19T01:01:47;1.85;;;1.75;;
13712;SDS011;6928;50.546;7.120;2023-10-19T01:04:19;1.80;;;1.60;;
13712;SDS011;6928;50.546;7.120;2023-10-19T01:06:48;6.18;;;1.77;;
13712;SDS011;6928;50.546;7.120;2023-10-19T01:09:27;2.60;;;1.77;;
13712;SDS011;6928;50.546;7.120;2023-10-19T01:11:59;0.88;;;0.88;;
13712;SDS011;6928;50.546;7.120;2023-10-19T01:14:42;0.93;;;0.93;;
13712;SDS011;6928;50.546;7.120;2023-10-19T01:17:09;1.58;;;1.48;;
13712;SDS011;6928;50.546;7.120;2023-10-19T01:19:37;1.42;;;1.25;;
13712;SDS011;6928;50.546;7.120;2023-10-19T01:22:05;1.08;;;1.05;;
13712;SDS011;6928;50.546;7.120;2023-10-19T01:24:34;4.28;;;1.50;;
13712;SDS011;6928;50.546;7.120;2023-10-19T01:27:06;2.10;;;1.65;;
13712;SDS011;6928;50.546;7.120;2023-10-19T01:29:35;1.52;;;1.42;;
13712;SDS011;6928;50.546;7.120;2023-10-19T01:32:03;2.50;;;1.50;;
13712;SDS011;6928;50.546;7.120;2023-10-19T01:34:32;1.70;;;1.52;;
13712;SDS011;6928;50.546;7.120;2023-10-19T01:36:59;1.75;;;1.65;;
13712;SDS011;6928;50.546;7.120;2023-10-19T01:39:29;1.05;;;1.05;;
13712;SDS011;6928;50.546;7.120;2023-10-19T01:41:58;2.42;;;1.63;;
13712;SDS011;6928;50.546;7.120;2023-10-19T01:44:24;1.10;;;1.00;;
13712;SDS011;6928;50.546;7.120;2023-10-19T01:46:51;0.80;;;0.80;;
13712;SDS011;6928;50.546;7.120;2023-10-19T01:49:17;2.28;;;1.35;;
13712;SDS011;6928;50.546;7.120;2023-10-19T01:51:51;1.30;;;1.20;;
13712;SDS011;6928;50.546;7.120;2023-10-19T01:54:19;1.67;;;1.58;;
13712;SDS011;6928;50.546;7.120;2023-10-19T01:56:50;1.77;;;1.67;;
13712;SDS011;6928;50.546;7.120;2023-10-19T01:59:20;1.30;;;1.20;;
13712;SDS011;6928;50.546;7.120;2023-10-19T02:01:52;2.50;;;2.17;;
13712;SDS011;6928;50.546;7.120;2023-10-19T02:04:20;2.17;;;1.23;;
13712;SDS011;6928;50.546;7.120;2023-10-19T02:06:47;1.45;;;1.33;;
13712;SDS011;6928;50.546;7.120;2023-10-19T02:09:14;2.08;;;1.77;;
13712;SDS011;6928;50.546;7.120;2023-10-19T02:11:47;1.60;;;1.50;;
13712;SDS011;6928;50.546;7.120;2023-10-19T02:14:15;1.67;;;1.15;;
13712;SDS011;6928;50.546;7.120;2023-10-19T02:16:45;1.00;;;1.00;;
13712;SDS011;6928;50.546;7.120;2023-10-19T02:19:16;2.28;;;2.15;;
13712;SDS011;6928;50.546;7.120;2023-10-19T02:21:44;1.33;;;1.23;;
13712;SDS011;6928;50.546;7.120;2023-10-19T02:24:13;1.50;;;1.40;;
13712;SDS011;6928;50.546;7.120;2023-10-19T02:26:40;1.17;;;1.08;;
13712;SDS011;6928;50.546;7.120;2023-10-19T02:29:07;3.38;;;1.50;;
13712;SDS011;6928;50.546;7.120;2023-10-19T02:31:34;0.98;;;0.93;;
13712;SDS011;6928;50.546;7.120;2023-10-19T02:34:06;1.58;;;1.25;;
13712;SDS011;6928;50.546;7.120;2023-10-19T02:36:35;2.50;;;1.52;;
13712;SDS011;6928;50.546;7.120;2023-10-19T02:39:04;2.28;;;1.52;;
13712;SDS011;6928;50.546;7.120;2023-10-19T02:41:32;1.50;;;1.38;;
13712;SDS011;6928;50.546;7.120;2023-10-19T02:44:01;2.15;;;1.75;;
13712;SDS011;6928;50.546;7.120;2023-10-19T02:46:34;2.92;;;1.20;;
13712;SDS011;6928;50.546;7.120;2023-10-19T02:49:03;1.52;;;1.15;;
13712;SDS011;6928;50.546;7.120;2023-10-19T02:51:36;2.75;;;1.98;;
13712;SDS011;6928;50.546;7.120;2023-10-19T02:54:02;2.85;;;1.98;;
13712;SDS011;6928;50.546;7.120;2023-10-19T02:56:30;1.35;;;1.25;;
13712;SDS011;6928;50.546;7.120;2023-10-19T02:58:56;2.08;;;1.67;;
13712;SDS011;6928;50.546;7.120;2023-10-19T03:01:28;1.27;;;1.20;;
13712;SDS011;6928;50.546;7.120;2023-10-19T03:03:57;1.73;;;1.60;;
13712;SDS011;6928;50.546;7.120;2023-10-19T03:06:26;1.35;;;1.20;;
13712;SDS011;6928;50.546;7.120;2023-10-19T03:08:57;1.45;;;1.35;;
13712;SDS011;6928;50.546;7.120;2023-10-19T03:11:26;2.22;;;1.70;;
13712;SDS011;6928;50.546;7.120;2023-10-19T03:13:52;3.17;;;1.20;;
13712;SDS011;6928;50.546;7.120;2023-10-19T03:16:19;2.45;;;1.98;;
13712;SDS011;6928;50.546;7.120;2023-10-19T03:18:47;1.92;;;1.55;;
13712;SDS011;6928;50.546;7.120;2023-10-19T03:21:15;1.45;;;1.35;;
13712;SDS011;6928;50.546;7.120;2023-10-19T03:23:43;1.10;;;1.10;;
13712;SDS011;6928;50.546;7.120;2023-10-19T03:26:09;2.45;;;2.10;;
13712;SDS011;6928;50.546;7.120;2023-10-19T03:28:49;1.55;;;1.45;;
13712;SDS011;6928;50.546;7.120;2023-10-19T03:31:20;2.55;;;1.73;;
13712;SDS011;6928;50.546;7.120;2023-10-19T03:33:48;1.67;;;1.58;;
13712;SDS011;6928;50.546;7.120;2023-10-19T03:36:19;3.75;;;1.30;;
13712;SDS011;6928;50.546;7.120;2023-10-19T03:38:49;1.35;;;1.25;;
13712;SDS011;6928;50.546;7.120;2023-10-19T03:41:18;1.25;;;1.17;;
13712;SDS011;6928;50.546;7.120;2023-10-19T03:43:51;1.30;;;1.23;;
13712;SDS011;6928;50.546;7.120;2023-10-19T03:46:19;1.35;;;1.25;;
13712;SDS011;6928;50.546;7.120;2023-10-19T03:48:53;1.73;;;1.40;;
13712;SDS011;6928;50.546;7.120;2023-10-19T03:51:23;1.40;;;1.35;;
13712;SDS011;6928;50.546;7.120;2023-10-19T03:53:53;1.45;;;1.35;;
13712;SDS011;6928;50.546;7.120;2023-10-19T03:56:26;1.48;;;1.15;;
13712;SDS011;6928;50.546;7.120;2023-10-19T03:58:57;2.42;;;2.08;;
13712;SDS011;6928;50.546;7.120;2023-10-19T04:01:25;1.67;;;1.58;;
13712;SDS011;6928;50.546;7.120;2023-10-19T04:03:52;2.00;;;1.63;;
13712;SDS011;6928;50.546;7.120;2023-10-19T04:06:20;1.20;;;1.13;;
13712;SDS011;6928;50.546;7.120;2023-10-19T04:08:47;8.43;;;3.88;;
13712;SDS011;6928;50.546;7.120;2023-10-19T04:11:17;2.58;;;1.77;;
13712;SDS011;6928;50.546;7.120;2023-10-19T04:13:57;2.20;;;1.60;;
13712;SDS011;6928;50.546;7.120;2023-10-19T04:16:28;1.92;;;1.83;;
13712;SDS011;6928;50.546;7.120;2023-10-19T04:18:55;2.30;;;1.48;;
13712;SDS011;6928;50.546;7.120;2023-10-19T04:21:23;3.47;;;1.80;;
13712;SDS011;6928;50.546;7.120;2023-10-19T04:23:50;2.15;;;1.15;;
13712;SDS011;6928;50.546;7.120;2023-10-19T04:26:18;1.33;;;1.20;;
13712;SDS011;6928;50.546;7.120;2023-10-19T04:28:45;1.70;;;1.45;;
13712;SDS011;6928;50.546;7.120;2023-10-19T04:31:15;2.35;;;1.40;;
13712;SDS011;6928;50.546;7.120;2023-10-19T04:33:43;1.42;;;1.20;;
13712;SDS011;6928;50.546;7.120;2023-10-19T04:36:12;1.92;;;1.73;;
13712;SDS011;6928;50.546;7.120;2023-10-19T04:38:40;2.10;;;1.90;;
13712;SDS011;6928;50.546;7.120;2023-10-19T04:41:09;1.95;;;1.63;;
13712;SDS011;6928;50.546;7.120;2023-10-19T04:43:38;4.63;;;2.13;;
13712;SDS011;6928;50.546;7.120;2023-10-19T04:46:08;2.65;;;1.27;;
13712;SDS011;6928;50.546;7.120;2023-10-19T04:48:37;0.90;;;0.90;;
13712;SDS011;6928;50.546;7.120;2023-10-19T04:51:08;1.52;;;1.42;;
13712;SDS011;6928;50.546;7.120;2023-10-19T04:53:36;1.20;;;1.10;;
13712;SDS011;6928;50.546;7.120;2023-10-19T04:56:03;1.55;;;1.35;;
13712;SDS011;6928;50.546;7.120;2023-10-19T04:58:33;1.95;;;1.77;;
13712;SDS011;6928;50.546;7.120;2023-10-19T05:01:03;3.13;;;2.55;;
13712;SDS011;6928;50.546;7.120;2023-10-19T05:03:30;4.93;;;2.30;;
13712;SDS011;6928;50.546;7.120;2023-10-19T05:05:59;2.55;;;1.70;;
13712;SDS011;6928;50.546;7.120;2023-10-19T05:08:26;2.88;;;2.05;;
13712;SDS011;6928;50.546;7.120;2023-10-19T05:10:53;5.13;;;2.13;;
13712;SDS011;6928;50.546;7.120;2023-10-19T05:13:21;3.25;;;2.22;;
13712;SDS011;6928;50.546;7.120;2023-10-19T05:15:50;3.05;;;1.88;;
13712;SDS011;6928;50.546;7.120;2023-10-19T05:18:19;3.67;;;1.75;;
13712;SDS011;6928;50.546;7.120;2023-10-19T05:20:46;3.15;;;1.73;;
13712;SDS011;6928;50.546;7.120;2023-10-19T05:23:14;2.53;;;1.75;;
13712;SDS011;6928;50.546;7.120;2023-10-19T05:25:41;2.25;;;1.65;;
13712;SDS011;6928;50.546;7.120;2023-10-19T05:28:08;2.10;;;1.77;;
13712;SDS011;6928;50.546;7.120;2023-10-19T05:30:35;1.45;;;1.35;;
13712;SDS011;6928;50.546;7.120;2023-10-19T05:33:02;1.40;;;1.30;;
13712;SDS011;6928;50.546;7.120;2023-10-19T05:35:32;1.35;;;1.27;;
13712;SDS011;6928;50.546;7.120;2023-10-19T05:38:05;2.05;;;1.35;;
13712;SDS011;6928;50.546;7.120;2023-10-19T05:40:32;1.50;;;1.40;;
13712;SDS011;6928;50.546;7.120;2023-10-19T05:43:00;1.40;;;1.30;;
13712;SDS011;6928;50.546;7.120;2023-10-19T05:45:28;1.83;;;1.52;;
13712;SDS011;6928;50.546;7.120;2023-10-19T05:47:57;4.60;;;2.05;;
13712;SDS011;6928;50.546;7.120;2023-10-19T05:50:25;1.25;;;1.15;;
13712;SDS011;6928;50.546;7.120;2023-10-19T05:52:55;2.10;;;1.30;;
13712;SDS011;6928;50.546;7.120;2023-10-19T05:55:21;14.10;;;1.30;;
13712;SDS011;6928;50.546;7.120;2023-10-19T05:57:48;1.48;;;1.42;;
13712;SDS011;6928;50.546;7.120;2023-10-19T06:00:15;2.58;;;2.38;;
13712;SDS011;6928;50.546;7.120;2023-10-19T06:02:45;2.58;;;2.30;;
13712;SDS011;6928;50.546;7.120;2023-10-19T06:05:15;1.60;;;1.08;;
13712;SDS011;6928;50.546;7.120;2023-10-19T06:07:43;3.20;;;1.50;;
13712;SDS011;6928;50.546;7.120;2023-10-19T06:10:14;1.75;;;1.50;;
13712;SDS011;6928;50.546;7.120;2023-10-19T06:12:42;2.75;;;1.92;;
13712;SDS011;6928;50.546;7.120;2023-10-19T06:15:11;1.38;;;1.15;;
13712;SDS011;6928;50.546;7.120;2023-10-19T06:17:38;2.33;;;2.13;;
13712;SDS011;6928;50.546;7.120;2023-10-19T06:20:07;1.52;;;1.25;;
13712;SDS011;6928;50.546;7.120;2023-10-19T06:22:45;1.80;;;1.58;;
13712;SDS011;6928;50.546;7.120;2023-10-19T06:25:17;1.98;;;1.83;;
13712;SDS011;6928;50.546;7.120;2023-10-19T06:27:46;2.50;;;1.98;;
13712;SDS011;6928;50.546;7.120;2023-10-19T06:30:14;2.55;;;2.00;;
13712;SDS011;6928;50.546;7.120;2023-10-19T06:32:47;3.20;;;2.05;;
13712;SDS011;6928;50.546;7.120;2023-10-19T06:35:15;2.45;;;1.83;;
13712;SDS011;6928;50.546;7.120;2023-10-19T06:37:43;1.92;;;1.73;;
13712;SDS011;6928;50.546;7.120;2023-10-19T06:40:10;1.83;;;1.73;;
13712;SDS011;6928;50.546;7.120;2023-10-19T06:42:41;2.08;;;1.65;;
13712;SDS011;6928;50.546;7.120;2023-10-19T06:45:09;1.92;;;1.15;;
13712;SDS011;6928;50.546;7.120;2023-10-19T06:47:39;2.13;;;1.85;;
13712;SDS011;6928;50.546;7.120;2023-10-19T06:50:08;2.28;;;1.55;;
13712;SDS011;6928;50.546;7.120;2023-10-19T06:52:36;2.22;;;2.10;;
13712;SDS011;6928;50.546;7.120;2023-10-19T06:55:04;1.17;;;1.08;;
13712;SDS011;6928;50.546;7.120;2023-10-19T06:57:38;2.53;;;1.52;;
13712;SDS011;6928;50.546;7.120;2023-10-19T07:00:09;2.08;;;1.55;;
13712;SDS011;6928;50.546;7.120;2023-10-19T07:02:41;2.55;;;1.83;;
13712;SDS011;6928;50.546;7.120;2023-10-19T07:05:08;2.35;;;2.00;;
13712;SDS011;6928;50.546;7.120;2023-10-19T07:07:38;1.90;;;1.80;;
13712;SDS011;6928;50.546;7.120;2023-10-19T07:10:06;3.22;;;1.77;;
13712;SDS011;6928;50.546;7.120;2023-10-19T07:12:34;1.75;;;1.65;;
13712;SDS011;6928;50.546;7.120;2023-10-19T07:15:04;2.08;;;1.63;;
13712;SDS011;6928;50.546;7.120;2023-10-19T07:17:33;2.10;;;1.90;;
13712;SDS011;6928;50.546;7.120;2023-10-19T07:20:00;4.00;;;2.10;;
13712;SDS011;6928;50.546;7.120;2023-10-19T07:22:31;2.22;;;1.65;;
13712;SDS011;6928;50.546;7.120;2023-10-19T07:24:59;2.88;;;1.67;;
13712;SDS011;6928;50.546;7.120;2023-10-19T07:27:27;3.60;;;2.17;;
13712;SDS011;6928;50.546;7.120;2023-10-19T07:29:54;4.82;;;2.30;;
13712;SDS011;6928;50.546;7.120;2023-10-19T07:32:22;2.60;;;1.63;;
13712;SDS011;6928;50.546;7.120;2023-10-19T07:34:49;2.58;;;2.05;;
13712;SDS011;6928;50.546;7.120;2023-10-19T07:37:16;2.70;;;2.08;;
13712;SDS011;6928;50.546;7.120;2023-10-19T07:39:44;2.60;;;2.03;;
13712;SDS011;6928;50.546;7.120;2023-10-19T07:42:12;1.65;;;1.55;;
13712;SDS011;6928;50.546;7.120;2023-10-19T07:44:40;4.53;;;2.13;;
13712;SDS011;6928;50.546;7.120;2023-10-19T07:47:07;1.80;;;1.70;;
13712;SDS011;6928;50.546;7.120;2023-10-19T07:49:36;6.47;;;2.83;;
13712;SDS011;6928;50.546;7.120;2023-10-19T07:52:04;3.47;;;2.92;;
13712;SDS011;6928;50.546;7.120;2023-10-19T07:54:32;1.52;;;1.42;;
13712;SDS011;6928;50.546;7.120;2023-10-19T07:56:58;2.75;;;2.20;;
13712;SDS011;6928;50.546;7.120;2023-10-19T07:59:28;3.67;;;2.03;;
13712;SDS011;6928;50.546;7.120;2023-10-19T08:01:55;3.45;;;1.92;;
13712;SDS011;6928;50.546;7.120;2023-10-19T08:04:21;2.42;;;2.15;;
13712;SDS011;6928;50.546;7.120;2023-10-19T08:06:51;2.00;;;1.67;;
13712;SDS011;6928;50.546;7.120;2023-10-19T08:09:18;2.00;;;1.88;;
13712;SDS011;6928;50.546;7.120;2023-10-19T08:11:47;2.13;;;1.92;;
13712;SDS011;6928;50.546;7.120;2023-10-19T08:14:14;2.20;;;1.98;;
13712;SDS011;6928;50.546;7.120;2023-10-19T08:16:41;2.00;;;1.58;;
13712;SDS011;6928;50.546;7.120;2023-10-19T08:19:08;2.53;;;2.10;;
13712;SDS011;6928;50.546;7.120;2023-10-19T08:21:37;5.40;;;2.22;;
13712;SDS011;6928;50.546;7.120;2023-10-19T08:24:06;3.65;;;1.70;;
13712;SDS011;6928;50.546;7.120;2023-10-19T08:26:38;1.92;;;1.77;;
13712;SDS011;6928;50.546;7.120;2023-10-19T08:29:07;2.45;;;1.83;;
13712;SDS011;6928;50.546;7.120;2023-10-19T08:31:38;2.63;;;2.03;;
13712;SDS011;6928;50.546;7.120;2023-10-19T08:34:05;1.95;;;1.75;;
13712;SDS011;6928;50.546;7.120;2023-10-19T08:36:34;3.08;;;2.20;;
13712;SDS011;6928;50.546;7.120;2023-10-19T08:39:02;3.63;;;2.28;;
13712;SDS011;6928;50.546;7.120;2023-10-19T08:41:32;2.53;;;2.03;;
13712;SDS011;6928;50.546;7.120;2023-10-19T08:44:02;7.63;;;1.63;;
13712;SDS011;6928;50.546;7.120;2023-10-19T08:46:35;8.27;;;2.50;;
13712;SDS011;6928;50.546;7.120;2023-10-19T08:49:04;2.17;;;1.98;;
13712;SDS011;6928;50.546;7.120;2023-10-19T08:51:34;2.05;;;1.67;;
13712;SDS011;6928;50.546;7.120;2023-10-19T08:54:02;2.13;;;1.73;;
13712;SDS011;6928;50.546;7.120;2023-10-19T08:56:32;4.55;;;2.50;;
13712;SDS011;6928;50.546;7.120;2023-10-19T08:59:01;5.68;;;1.70;;
13712;SDS011;6928;50.546;7.120;2023-10-19T09:01:27;2.47;;;2.28;;
13712;SDS011;6928;50.546;7.120;2023-10-19T09:03:56;2.00;;;1.85;;
13712;SDS011;6928;50.546;7.120;2023-10-19T09:06:23;5.00;;;1.73;;
13712;SDS011;6928;50.546;7.120;2023-10-19T09:08:51;1.05;;;1.05;;
13712;SDS011;6928;50.546;7.120;2023-10-19T09:11:18;1.10;;;1.00;;
13712;SDS011;6928;50.546;7.120;2023-10-19T09:13:48;0.90;;;0.90;;
13712;SDS011;6928;50.546;7.120;2023-10-19T09:16:18;1.05;;;1.05;;
13712;SDS011;6928;50.546;7.120;2023-10-19T09:18:47;1.00;;;0.82;;
13712;SDS011;6928;50.546;7.120;2023-10-19T09:21:15;0.52;;;0.52;;
13712;SDS011;6928;50.546;7.120;2023-10-19T09:23:49;1.63;;;0.73;;
13712;SDS011;6928;50.546;7.120;2023-10-19T09:26:16;5.22;;;1.40;;
13712;SDS011;6928;50.546;7.120;2023-10-19T09:28:47;1.35;;;0.90;;
13712;SDS011;6928;50.546;7.120;2023-10-19T09:31:15;4.45;;;0.93;;
13712;SDS011;6928;50.546;7.120;2023-10-19T09:33:42;1.27;;;1.17;;
13712;SDS011;6928;50.546;7.120;2023-10-19T09:36:10;2.05;;;1.05;;
13712;SDS011;6928;50.546;7.120;2023-10-19T09:38:39;1.35;;;0.60;;
13712;SDS011;6928;50.546;7.120;2023-10-19T09:41:09;0.82;;;0.82;;
13712;SDS011;6928;50.546;7.120;2023-10-19T09:43:41;1.67;;;0.80;;
13712;SDS011;6928;50.546;7.120;2023-10-19T09:46:10;1.42;;;1.10;;
13712;SDS011;6928;50.546;7.120;2023-10-19T09:48:39;1.20;;;1.13;;
13712;SDS011;6928;50.546;7.120;2023-10-19T09:51:07;0.55;;;0.55;;
13712;SDS011;6928;50.546;7.120;2023-10-19T09:53:34;3.03;;;0.80;;
13712;SDS011;6928;50.546;7.120;2023-10-19T09:56:03;3.28;;;0.50;;
13712;SDS011;6928;50.546;7.120;2023-10-19T09:58:33;1.00;;;0.63;;
13712;SDS011;6928;50.546;7.120;2023-10-19T10:01:03;1.75;;;0.20;;
13712;SDS011;6928;50.546;7.120;2023-10-19T10:03:47;0.80;;;0.50;;
13712;SDS011;6928;50.546;7.120;2023-10-19T10:06:16;2.00;;;0.68;;
13712;SDS011;6928;50.546;7.120;2023-10-19T10:08:45;1.27;;;0.57;;
13712;SDS011;6928;50.546;7.120;2023-10-19T10:11:13;1.98;;;0.70;;
13712;SDS011;6928;50.546;7.120;2023-10-19T10:13:42;0.60;;;0.40;;
13712;SDS011;6928;50.546;7.120;2023-10-19T10:16:09;0.30;;;0.30;;
13712;SDS011;6928;50.546;7.120;2023-10-19T10:18:40;5.80;;;0.50;;
13712;SDS011;6928;50.546;7.120;2023-10-19T10:21:12;1.42;;;0.57;;
13712;SDS011;6928;50.546;7.120;2023-10-19T10:23:41;5.35;;;0.60;;
13712;SDS011;6928;50.546;7.120;2023-10-19T10:26:09;1.30;;;0.50;;
13712;SDS011;6928;50.546;7.120;2023-10-19T10:28:38;0.70;;;0.25;;
13712;SDS011;6928;50.546;7.120;2023-10-19T10:31:12;5.43;;;0.57;;
13712;SDS011;6928;50.546;7.120;2023-10-19T10:33:41;0.70;;;0.43;;
13712;SDS011;6928;50.546;7.120;2023-10-19T10:36:11;1.27;;;0.57;;
13712;SDS011;6928;50.546;7.120;2023-10-19T10:38:38;0.40;;;0.40;;
13712;SDS011;6928;50.546;7.120;2023-10-19T10:41:05;0.50;;;0.50;;
13712;SDS011;6928;50.546;7.120;2023-10-19T10:43:47;0.75;;;0.40;;
13712;SDS011;6928;50.546;7.120;2023-10-19T10:46:14;3.13;;;0.50;;
13712;SDS011;6928;50.546;7.120;2023-10-19T10:48:42;0.77;;;0.30;;
13712;SDS011;6928;50.546;7.120;2023-10-19T10:51:15;1.08;;;0.47;;
13712;SDS011;6928;50.546;7.120;2023-10-19T10:53:43;0.52;;;0.32;;
13712;SDS011;6928;50.546;7.120;2023-10-19T10:56:10;0.40;;;0.40;;
13712;SDS011;6928;50.546;7.120;2023-10-19T10:58:37;0.30;;;0.30;;
13712;SDS011;6928;50.546;7.120;2023-10-19T11:01:03;6.35;;;0.50;;
13712;SDS011;6928;50.546;7.120;2023-10-19T11:03:34;3.35;;;0.80;;
13712;SDS011;6928;50.546;7.120;2023-10-19T11:06:09;0.40;;;0.40;;
13712;SDS011;6928;50.546;7.120;2023-10-19T11:08:38;2.38;;;0.85;;
13712;SDS011;6928;50.546;7.120;2023-10-19T11:11:07;14.43;;;1.50;;
13712;SDS011;6928;50.546;7.120;2023-10-19T11:13:36;1.65;;;0.63;;
13712;SDS011;6928;50.546;7.120;2023-10-19T11:16:03;2.95;;;0.95;;
13712;SDS011;6928;50.546;7.120;2023-10-19T11:18:32;1.70;;;0.90;;
13712;SDS011;6928;50.546;7.120;2023-10-19T11:21:02;0.40;;;0.40;;
13712;SDS011;6928;50.546;7.120;2023-10-19T11:23:35;2.90;;;0.75;;
13712;SDS011;6928;50.546;7.120;2023-10-19T11:26:07;6.80;;;0.50;;
13712;SDS011;6928;50.546;7.120;2023-10-19T11:28:35;2.15;;;0.90;;
13712;SDS011;6928;50.546;7.120;2023-10-19T11:31:14;0.47;;;0.32;;
13712;SDS011;6928;50.546;7.120;2023-10-19T11:33:44;1.65;;;0.55;;
13712;SDS011;6928;50.546;7.120;2023-10-19T11:36:13;0.90;;;0.63;;
13712;SDS011;6928;50.546;7.120;2023-10-19T11:38:42;0.50;;;0.40;;
13712;SDS011;6928;50.546;7.120;2023-10-19T11:41:09;0.28;;;0.28;;
13712;SDS011;6928;50.546;7.120;2023-10-19T11:43:38;0.30;;;0.30;;
13712;SDS011;6928;50.546;7.120;2023-10-19T11:46:05;1.98;;;0.68;;
13712;SDS011;6928;50.546;7.120;2023-10-19T11:48:32;0.55;;;0.55;;
13712;SDS011;6928;50.546;7.120;2023-10-19T11:51:00;1.50;;;0.73;;
13712;SDS011;6928;50.546;7.120;2023-10-19T11:53:29;3.20;;;0.63;;
13712;SDS011;6928;50.546;7.120;2023-10-19T11:56:00;0.70;;;0.70;;
13712;SDS011;6928;50.546;7.120;2023-10-19T11:58:28;2.30;;;0.80;;
13712;SDS011;6928;50.546;7.120;2023-10-19T12:00:57;2.10;;;0.80;;
13712;SDS011;6928;50.546;7.120;2023-10-19T12:03:24;1.80;;;0.95;;
13712;SDS011;6928;50.546;7.120;2023-10-19T12:05:53;3.13;;;0.60;;
13712;SDS011;6928;50.546;7.120;2023-10-19T12:08:20;1.90;;;0.70;;
13712;SDS011;6928;50.546;7.120;2023-10-19T12:10:47;0.77;;;0.55;;
13712;SDS011;6928;50.546;7.120;2023-10-19T12:13:16;2.00;;;0.63;;
13712;SDS011;6928;50.546;7.120;2023-10-19T12:15:43;2.05;;;0.50;;
13712;SDS011;6928;50.546;7.120;2023-10-19T12:18:17;2.20;;;0.95;;
13712;SDS011;6928;50.546;7.120;2023-10-19T12:20:44;0.77;;;0.73;;
13712;SDS011;6928;50.546;7.120;2023-10-19T12:23:12;1.95;;;1.08;;
13712;SDS011;6928;50.546;7.120;2023-10-19T12:25:39;5.05;;;1.92;;
13712;SDS011;6928;50.546;7.120;2023-10-19T12:28:07;4.97;;;1.15;;
13712;SDS011;6928;50.546;7.120;2023-10-19T12:30:39;4.80;;;0.73;;
13712;SDS011;6928;50.546;7.120;2023-10-19T12:33:07;1.10;;;0.63;;
13712;SDS011;6928;50.546;7.120;2023-10-19T12:35:36;1.55;;;0.60;;
13712;SDS011;6928;50.546;7.120;2023-10-19T12:38:10;0.65;;;0.60;;
13712;SDS011;6928;50.546;7.120;2023-10-19T12:40:41;3.88;;;0.70;;
13712;SDS011;6928;50.546;7.120;2023-10-19T12:43:09;1.15;;;1.10;;
13712;SDS011;6928;50.546;7.120;2023-10-19T12:45:37;1.95;;;1.40;;
13712;SDS011;6928;50.546;7.120;2023-10-19T12:48:06;0.93;;;0.93;;
13712;SDS011;6928;50.546;7.120;2023-10-19T12:50:35;0.52;;;0.52;;
13712;SDS011;6928;50.546;7.120;2023-10-19T12:53:02;3.33;;;0.70;;
13712;SDS011;6928;50.546;7.120;2023-10-19T12:55:29;1.27;;;0.75;;
13712;SDS011;6928;50.546;7.120;2023-10-19T12:57:57;0.73;;;0.70;;
13712;SDS011;6928;50.546;7.120;2023-10-19T13:00:31;1.20;;;1.10;;
13712;SDS011;6928;50.546;7.120;2023-10-19T13:03:01;3.97;;;1.00;;
13712;SDS011;6928;50.546;7.120;2023-10-19T13:05:33;1.35;;;1.25;;
13712;SDS011;6928;50.546;7.120;2023-10-19T13:08:00;1.73;;;1.52;;
13712;SDS011;6928;50.546;7.120;2023-10-19T13:10:29;2.97;;;0.60;;
13712;SDS011;6928;50.546;7.120;2023-10-19T13:12:58;0.55;;;0.55;;
13712;SDS011;6928;50.546;7.120;2023-10-19T13:15:28;1.95;;;1.02;;
13712;SDS011;6928;50.546;7.120;2023-10-19T13:17:56;3.55;;;1.00;;
13712;SDS011;6928;50.546;7.120;2023-10-19T13:20:24;1.30;;;1.10;;
13712;SDS011;6928;50.546;7.120;2023-10-19T13:22:52;1.00;;;0.90;;
13712;SDS011;6928;50.546;7.120;2023-10-19T13:25:21;2.95;;;1.48;;
13712;SDS011;6928;50.546;7.120;2023-10-19T13:28:04;5.00;;;1.42;;
13712;SDS011;6928;50.546;7.120;2023-10-19T13:30:35;0.75;;;0.75;;
13712;SDS011;6928;50.546;7.120;2023-10-19T13:33:03;0.57;;;0.50;;
13712;SDS011;6928;50.546;7.120;2023-10-19T13:35:31;1.13;;;0.70;;
13712;SDS011;6928;50.546;7.120;2023-10-19T13:37:59;4.97;;;0.95;;
13712;SDS011;6928;50.546;7.120;2023-10-19T13:40:26;0.75;;;0.60;;
13712;SDS011;6928;50.546;7.120;2023-10-19T13:42:55;0.88;;;0.70;;
13712;SDS011;6928;50.546;7.120;2023-10-19T13:45:21;0.98;;;0.60;;
13712;SDS011;6928;50.546;7.120;2023-10-19T13:47:48;0.60;;;0.60;;
13712;SDS011;6928;50.546;7.120;2023-10-19T13:50:16;1.77;;;0.55;;
13712;SDS011;6928;50.546;7.120;2023-10-19T13:52:43;1.55;;;0.77;;
13712;SDS011;6928;50.546;7.120;2023-10-19T13:55:11;1.50;;;0.65;;
13712;SDS011;6928;50.546;7.120;2023-10-19T13:57:42;3.38;;;1.13;;
13712;SDS011;6928;50.546;7.120;2023-10-19T14:00:09;0.65;;;0.50;;
13712;SDS011;6928;50.546;7.120;2023-10-19T14:02:37;1.02;;;0.88;;
13712;SDS011;6928;50.546;7.120;2023-10-19T14:05:04;2.10;;;1.15;;
13712;SDS011;6928;50.546;7.120;2023-10-19T14:07:32;1.30;;;1.17;;
13712;SDS011;6928;50.546;7.120;2023-10-19T14:09:58;1.90;;;1.08;;
13712;SDS011;6928;50.546;7.120;2023-10-19T14:12:26;3.47;;;0.95;;
13712;SDS011;6928;50.546;7.120;2023-10-19T14:14:53;1.10;;;1.00;;
13712;SDS011;6928;50.546;7.120;2023-10-19T14:17:19;2.17;;;1.17;;
13712;SDS011;6928;50.546;7.120;2023-10-19T14:19:46;0.88;;;0.88;;
13712;SDS011;6928;50.546;7.120;2023-10-19T14:22:13;2.35;;;0.80;;
13712;SDS011;6928;50.546;7.120;2023-10-19T14:24:41;1.10;;;1.00;;
13712;SDS011;6928;50.546;7.120;2023-10-19T14:27:07;1.52;;;0.80;;
13712;SDS011;6928;50.546;7.120;2023-10-19T14:29:36;1.17;;;1.08;;
13712;SDS011;6928;50.546;7.120;2023-10-19T14:32:02;4.93;;;1.70;;
13712;SDS011;6928;50.546;7.120;2023-10-19T14:34:29;1.20;;;1.10;;
13712;SDS011;6928;50.546;7.120;2023-10-19T14:36:56;1.23;;;1.13;;
13712;SDS011;6928;50.546;7.120;2023-10-19T14:39:23;1.85;;;1.38;;
13712;SDS011;6928;50.546;7.120;2023-10-19T14:41:50;1.30;;;1.20;;
13712;SDS011;6928;50.546;7.120;2023-10-19T14:44:16;1.23;;;1.13;;
13712;SDS011;6928;50.546;7.120;2023-10-19T14:46:45;1.33;;;1.08;;
13712;SDS011;6928;50.546;7.120;2023-10-19T14:49:12;1.05;;;1.00;;
13712;SDS011;6928;50.546;7.120;2023-10-19T14:51:38;1.58;;;1.27;;
13712;SDS011;6928;50.546;7.120;2023-10-19T14:54:06;1.30;;;1.20;;
13712;SDS011;6928;50.546;7.120;2023-10-19T14:56:33;2.63;;;1.38;;
13712;SDS011;6928;50.546;7.120;2023-10-19T14:58:59;1.38;;;1.33;;
13712;SDS011;6928;50.546;7.120;2023-10-19T15:01:26;1.58;;;1.48;;
13712;SDS011;6928;50.546;7.120;2023-10-19T15:03:55;2.10;;;1.00;;
13712;SDS011;6928;50.546;7.120;2023-10-19T15:06:22;1.42;;;1.33;;
13712;SDS011;6928;50.546;7.120;2023-10-19T15:08:48;0.90;;;0.90;;
13712;SDS011;6928;50.546;7.120;2023-10-19T15:11:16;1.33;;;1.00;;